Time;durP1;ratioP1;P1;durP2;ratioP2;P2;SDS_P1;SDS_P2;PMS_P1;PMS_P2;Temp;Humidity;BMP_temperature;BMP_pressure;BME280_temperature;BME280_humidity;BME280_pressure;Samples;Min_cycle;Max_cycle;Signal;HPM_P1;HPM_P2
2024/01/24 00:00:06;;;;;;;4.83;1.30;;;14.20;99.90;;;;;;7286408;19;20187;-82
2024/01/24 00:02:36;;;;;;;4.13;1.30;;;14.30;99.90;;;;;;7287819;19;20644;-81
2024/01/24 00:05:01;;;;;;;8.53;1.93;;;14.20;99.90;;;;;;7309618;19;20187;-81
2024/01/24 00:07:28;;;;;;;3.43;1.17;;;14.30;99.90;;;;;;7287308;19;20215;-82
2024/01/24 00:09:53;;;;;;;5.63;1.40;;;14.30;99.90;;;;;;7285203;19;20175;-81
2024/01/24 00:12:22;;;;;;;3.43;1.23;;;14.30;99.90;;;;;;7286200;19;20282;-81
2024/01/24 00:14:48;;;;;;;5.10;1.40;;;14.30;99.90;;;;;;7288237;19;20183;-82
2024/01/24 00:17:13;;;;;;;4.27;1.23;;;14.20;99.90;;;;;;7287461;19;20259;-81
2024/01/24 00:19:39;;;;;;;4.47;1.30;;;14.30;99.90;;;;;;7285836;19;20574;-82
2024/01/24 00:22:05;;;;;;;2.57;1.10;;;14.30;99.90;;;;;;7286142;19;20184;-81
2024/01/24 00:24:30;;;;;;;6.47;1.20;;;14.40;99.90;;;;;;7308883;19;20183;-82
2024/01/24 00:26:57;;;;;;;4.17;1.00;;;14.40;99.90;;;;;;7287976;19;20660;-81
2024/01/24 00:29:23;;;;;;;4.10;1.33;;;14.40;99.90;;;;;;7288367;19;20202;-80
2024/01/24 00:31:48;;;;;;;5.27;1.30;;;14.40;99.90;;;;;;7287067;19;20633;-80
2024/01/24 00:34:15;;;;;;;1.80;0.93;;;14.40;99.90;;;;;;7287284;19;20637;-80
2024/01/24 00:36:41;;;;;;;4.63;1.10;;;14.40;99.90;;;;;;7285738;19;20178;-80
2024/01/24 00:39:07;;;;;;;5.03;1.30;;;14.40;99.90;;;;;;7285517;19;20185;-82
2024/01/24 00:41:33;;;;;;;3.53;1.10;;;14.30;99.90;;;;;;7301553;19;20200;-80
2024/01/24 00:43:59;;;;;;;4.83;1.07;;;14.40;99.90;;;;;;7303009;19;20979;-81
2024/01/24 00:46:25;;;;;;;3.60;1.00;;;14.50;99.90;;;;;;7286106;19;20187;-81
2024/01/24 00:48:51;;;;;;;2.03;0.90;;;14.50;99.90;;;;;;7280945;19;20187;-81
2024/01/24 00:51:17;;;;;;;2.70;0.90;;;14.50;99.90;;;;;;7285110;19;20226;-81
2024/01/24 00:53:49;;;;;;;7.33;1.30;;;14.50;99.90;;;;;;7281982;19;20198;-81
2024/01/24 00:56:15;;;;;;;4.17;1.10;;;14.50;99.90;;;;;;7284248;19;20196;-81
2024/01/24 00:58:41;;;;;;;4.93;1.00;;;14.50;99.90;;;;;;7285594;19;20697;-81
2024/01/24 01:01:07;;;;;;;3.10;1.00;;;14.50;99.90;;;;;;7285731;19;20453;-81
2024/01/24 01:03:32;;;;;;;2.80;0.83;;;14.50;99.90;;;;;;7309009;19;20723;-81
2024/01/24 01:05:58;;;;;;;3.70;1.17;;;14.30;99.90;;;;;;7281566;19;20256;-81
2024/01/24 01:08:24;;;;;;;3.00;0.90;;;14.20;99.90;;;;;;7285974;19;20671;-81
2024/01/24 01:10:49;;;;;;;3.10;1.20;;;14.20;99.90;;;;;;7285894;19;20188;-81
2024/01/24 01:13:15;;;;;;;4.17;1.07;;;14.10;99.90;;;;;;7285301;19;20209;-81
2024/01/24 01:15:41;;;;;;;4.72;1.30;;;14.00;99.90;;;;;;7290745;19;20671;-80
2024/01/24 01:18:07;;;;;;;4.80;1.40;;;13.90;99.90;;;;;;7287741;19;20191;-82
2024/01/24 01:20:32;;;;;;;2.27;1.10;;;13.90;99.90;;;;;;7312725;19;20298;-83
2024/01/24 01:22:58;;;;;;;4.17;1.10;;;13.90;99.90;;;;;;7291432;19;20824;-81
2024/01/24 01:25:23;;;;;;;1.93;0.97;;;13.80;99.90;;;;;;7297022;19;20196;-82
2024/01/24 01:27:49;;;;;;;3.93;0.90;;;13.70;99.90;;;;;;7296795;19;20187;-82
2024/01/24 01:30:15;;;;;;;2.37;1.20;;;13.70;99.90;;;;;;7291967;19;20219;-82
2024/01/24 01:32:41;;;;;;;3.17;1.00;;;13.70;99.90;;;;;;7290164;19;20696;-81
2024/01/24 01:35:07;;;;;;;3.70;1.20;;;13.60;99.90;;;;;;7286377;19;20186;-81
2024/01/24 01:37:33;;;;;;;2.07;1.17;;;13.60;99.90;;;;;;7301468;19;20193;-80
2024/01/24 01:39:59;;;;;;;2.57;1.13;;;13.60;99.90;;;;;;7298462;19;20654;-81
2024/01/24 01:42:24;;;;;;;3.60;1.20;;;13.60;99.90;;;;;;7284753;19;20202;-82
2024/01/24 01:44:50;;;;;;;3.90;1.30;;;13.50;99.90;;;;;;7288297;19;20197;-83
2024/01/24 01:47:17;;;;;;;3.17;1.20;;;13.50;99.90;;;;;;7284576;19;20661;-82
2024/01/24 01:49:44;;;;;;;2.10;1.10;;;13.50;99.90;;;;;;7284463;19;20208;-81
2024/01/24 01:52:10;;;;;;;4.60;1.17;;;13.50;99.90;;;;;;7286034;19;20209;-82
2024/01/24 01:54:40;;;;;;;3.17;1.07;;;13.40;99.90;;;;;;7277530;19;20186;-81
2024/01/24 01:57:08;;;;;;;3.10;1.10;;;13.40;99.90;;;;;;7285074;19;20283;-81
2024/01/24 01:59:35;;;;;;;3.47;1.23;;;13.40;99.90;;;;;;7292263;19;20244;-82
2024/01/24 02:02:01;;;;;;;2.70;1.43;;;13.40;99.90;;;;;;7304829;19;20522;-83
2024/01/24 02:04:28;;;;;;;5.07;1.50;;;13.40;99.90;;;;;;7284023;19;20215;-83
2024/01/24 02:06:57;;;;;;;3.07;1.27;;;13.40;99.90;;;;;;7282814;19;20225;-82
2024/01/24 02:09:24;;;;;;;2.37;1.20;;;13.40;99.90;;;;;;7283267;19;20242;-82
2024/01/24 02:11:50;;;;;;;5.07;1.33;;;13.30;99.90;;;;;;7284767;19;20189;-82
2024/01/24 02:14:16;;;;;;;3.57;1.27;;;13.30;99.90;;;;;;7283230;19;20192;-82
2024/01/24 02:16:42;;;;;;;2.20;1.17;;;13.20;99.90;;;;;;7283265;19;20629;-83
2024/01/24 02:19:08;;;;;;;4.20;1.13;;;13.20;99.90;;;;;;7281282;19;20192;-83
2024/01/24 02:21:33;;;;;;;2.97;1.20;;;13.20;99.90;;;;;;7293005;19;20203;-82
2024/01/24 02:24:00;;;;;;;2.03;1.10;;;13.20;99.90;;;;;;7302861;19;20189;-82
2024/01/24 02:26:26;;;;;;;3.40;1.40;;;13.20;99.90;;;;;;7282980;19;20196;-83
2024/01/24 02:28:51;;;;;;;1.53;1.10;;;13.20;99.90;;;;;;7282530;19;20668;-83
2024/01/24 02:31:19;;;;;;;2.77;1.20;;;13.20;99.90;;;;;;7283567;19;20192;-82
2024/01/24 02:33:45;;;;;;;2.03;1.00;;;13.20;99.90;;;;;;7280820;19;20185;-82
2024/01/24 02:36:14;;;;;;;2.13;1.10;;;13.20;99.90;;;;;;7283494;19;20671;-82
2024/01/24 02:38:40;;;;;;;1.43;1.10;;;13.20;99.90;;;;;;7283012;19;20185;-82
2024/01/24 02:41:07;;;;;;;2.27;1.20;;;13.20;99.90;;;;;;7282594;19;20207;-82
2024/01/24 02:43:36;;;;;;;2.97;1.10;;;13.20;99.90;;;;;;7306218;19;20212;-83
2024/01/24 02:46:02;;;;;;;1.80;1.00;;;13.20;99.90;;;;;;7283913;19;20210;-83
2024/01/24 02:48:28;;;;;;;1.97;1.10;;;13.30;99.90;;;;;;7283364;19;20185;-83
2024/01/24 02:50:54;;;;;;;2.40;1.10;;;13.20;99.90;;;;;;7282717;19;20248;-83
2024/01/24 02:53:20;;;;;;;1.80;0.97;;;13.20;99.90;;;;;;7286805;19;20198;-82
2024/01/24 02:55:46;;;;;;;1.60;1.03;;;13.30;99.90;;;;;;7282839;19;20191;-82
2024/01/24 02:58:12;;;;;;;2.27;1.10;;;13.20;99.90;;;;;;7283372;19;20191;-82
2024/01/24 03:00:38;;;;;;;2.07;1.07;;;13.30;99.90;;;;;;7281691;19;20663;-82
2024/01/24 03:03:04;;;;;;;2.23;1.10;;;13.40;99.90;;;;;;7295480;19;20186;-81
2024/01/24 03:05:30;;;;;;;1.47;1.10;;;13.30;99.90;;;;;;7302692;19;20193;-82
2024/01/24 03:07:59;;;;;;;1.83;1.10;;;13.30;99.90;;;;;;7282900;19;20278;-82
2024/01/24 03:10:28;;;;;;;1.70;1.00;;;13.20;99.90;;;;;;7283005;19;20182;-82
2024/01/24 03:12:54;;;;;;;1.77;1.00;;;13.10;99.90;;;;;;7281967;19;20294;-82
2024/01/24 03:15:20;;;;;;;1.77;0.90;;;13.20;99.90;;;;;;7281910;19;20194;-82
2024/01/24 03:17:46;;;;;;;2.10;0.90;;;13.20;99.90;;;;;;7281434;19;20283;-82
2024/01/24 03:20:13;;;;;;;3.00;0.90;;;13.20;99.90;;;;;;7282910;19;20193;-82
2024/01/24 03:22:42;;;;;;;1.23;0.70;;;13.30;99.90;;;;;;7281591;19;20682;-81
2024/01/24 03:25:08;;;;;;;2.17;0.80;;;13.30;99.90;;;;;;7282473;19;20193;-80
2024/01/24 03:27:34;;;;;;;2.07;0.60;;;13.30;99.90;;;;;;7303351;19;20186;-80
2024/01/24 03:30:00;;;;;;;1.07;0.60;;;13.30;99.90;;;;;;7289795;19;20201;-82
2024/01/24 03:32:26;;;;;;;2.50;0.80;;;13.20;99.90;;;;;;7280785;19;20189;-82
2024/01/24 03:34:53;;;;;;;1.77;0.70;;;13.20;99.90;;;;;;7279876;19;20540;-83
2024/01/24 03:37:19;;;;;;;1.10;0.67;;;13.20;99.90;;;;;;7280465;19;20210;-82
2024/01/24 03:39:45;;;;;;;1.33;0.90;;;13.20;99.90;;;;;;7279728;19;20593;-83
2024/01/24 03:42:10;;;;;;;3.00;0.97;;;13.20;99.90;;;;;;7280138;19;20246;-82
2024/01/24 03:44:36;;;;;;;2.10;0.80;;;13.20;99.90;;;;;;7284144;19;20202;-82
2024/01/24 03:47:02;;;;;;;2.93;1.20;;;13.20;99.90;;;;;;7310704;19;20196;-82
2024/01/24 03:49:29;;;;;;;3.03;1.20;;;13.10;99.90;;;;;;7287151;19;20182;-82
2024/01/24 03:51:55;;;;;;;4.27;1.30;;;13.20;99.90;;;;;;7288272;19;20192;-82
2024/01/24 03:54:22;;;;;;;6.77;1.07;;;13.10;99.90;;;;;;7287586;19;20200;-82
2024/01/24 03:56:48;;;;;;;2.20;1.10;;;13.00;99.90;;;;;;7287651;19;20940;-82
2024/01/24 03:59:14;;;;;;;5.10;1.60;;;13.00;99.90;;;;;;7287010;19;20200;-82
2024/01/24 04:01:40;;;;;;;5.77;1.50;;;13.00;99.90;;;;;;7287921;19;20180;-82
2024/01/24 04:04:05;;;;;;;9.00;1.57;;;13.00;99.90;;;;;;7294587;19;20525;-82
2024/01/24 04:06:31;;;;;;;11.10;1.77;;;12.90;99.90;;;;;;7308379;19;20189;-82
2024/01/24 04:08:57;;;;;;;13.50;2.20;;;12.80;99.90;;;;;;7284207;19;20271;-81
2024/01/24 04:11:22;;;;;;;18.43;2.30;;;12.70;99.90;;;;;;7285633;19;20209;-82
2024/01/24 04:13:54;;;;;;;19.00;2.20;;;12.60;99.90;;;;;;7286620;19;20670;-83
2024/01/24 04:16:19;;;;;;;12.93;2.30;;;12.60;99.90;;;;;;7288083;19;20672;-82
2024/01/24 04:18:46;;;;;;;12.83;1.90;;;12.60;99.90;;;;;;7290324;19;20189;-82
2024/01/24 04:21:12;;;;;;;18.53;2.43;;;12.60;99.90;;;;;;7287895;19;20185;-82
2024/01/24 04:23:37;;;;;;;17.60;2.30;;;12.60;99.90;;;;;;7297281;19;20194;-81
2024/01/24 04:26:04;;;;;;;20.03;2.23;;;12.70;99.90;;;;;;7333763;19;20195;-81
2024/01/24 04:28:31;;;;;;;17.63;3.17;;;12.70;99.90;;;;;;7325888;19;20687;-81
2024/01/24 04:30:57;;;;;;;22.20;2.83;;;12.80;99.90;;;;;;7316284;19;20197;-82
2024/01/24 04:33:23;;;;;;;19.83;3.23;;;12.80;99.90;;;;;;7308418;19;20182;-80
2024/01/24 04:35:48;;;;;;;21.77;3.23;;;12.70;99.90;;;;;;7287691;19;20191;-81
2024/01/24 04:38:15;;;;;;;19.67;3.40;;;12.70;99.90;;;;;;7285951;19;20211;-81
2024/01/24 04:40:41;;;;;;;22.60;3.60;;;12.70;99.90;;;;;;7286355;19;20502;-81
2024/01/24 04:43:07;;;;;;;22.50;3.57;;;12.70;99.90;;;;;;7286193;19;20269;-82
2024/01/24 04:45:33;;;;;;;25.97;3.03;;;12.70;99.90;;;;;;7307679;19;20997;-80
2024/01/24 04:47:59;;;;;;;20.03;3.30;;;12.70;99.90;;;;;;7296724;19;20286;-82
2024/01/24 04:50:25;;;;;;;21.17;3.20;;;12.70;99.90;;;;;;7286513;19;20249;-82
2024/01/24 04:52:50;;;;;;;21.10;3.80;;;12.80;99.90;;;;;;7285054;19;20198;-81
2024/01/24 04:55:16;;;;;;;26.07;4.17;;;12.80;99.90;;;;;;7282348;19;20198;-81
2024/01/24 04:57:43;;;;;;;27.33;4.10;;;12.80;99.90;;;;;;7285347;19;20646;-81
2024/01/24 05:00:11;;;;;;;27.20;3.60;;;12.80;99.90;;;;;;7286566;19;20891;-82
2024/01/24 05:02:37;;;;;;;25.63;3.80;;;12.90;99.90;;;;;;7285195;19;20199;-82
2024/01/24 05:05:06;;;;;;;31.00;4.93;;;12.90;99.90;;;;;;7306225;19;20207;-80
2024/01/24 05:07:34;;;;;;;31.03;4.17;;;12.90;99.90;;;;;;7286051;19;20200;-82
2024/01/24 05:10:02;;;;;;;34.43;4.60;;;12.90;99.90;;;;;;7285708;19;20625;-82
2024/01/24 05:12:28;;;;;;;31.10;5.00;;;12.90;99.90;;;;;;7285342;19;20204;-82
2024/01/24 05:14:53;;;;;;;34.27;4.83;;;12.90;99.90;;;;;;7286676;19;20666;-82
2024/01/24 05:17:19;;;;;;;27.83;4.53;;;12.90;99.90;;;;;;7286077;19;20716;-82
2024/01/24 05:19:45;;;;;;;26.27;4.57;;;12.90;99.90;;;;;;7285302;19;20192;-82
2024/01/24 05:22:12;;;;;;;36.47;4.73;;;12.90;99.90;;;;;;7284144;19;20268;-82
2024/01/24 05:24:37;;;;;;;30.20;4.90;;;12.80;99.90;;;;;;7283290;19;20197;-81
2024/01/24 05:27:03;;;;;;;31.73;4.77;;;12.80;99.90;;;;;;7306687;19;20196;-81
2024/01/24 05:29:29;;;;;;;27.53;4.30;;;12.80;99.90;;;;;;7286994;19;20680;-81
2024/01/24 05:31:55;;;;;;;33.80;4.40;;;12.70;99.90;;;;;;7283588;19;20178;-81
2024/01/24 05:34:20;;;;;;;31.03;5.13;;;12.80;99.90;;;;;;7285427;19;20193;-82
2024/01/24 05:36:46;;;;;;;30.80;4.93;;;12.90;99.90;;;;;;7284331;19;20195;-81
2024/01/24 05:39:13;;;;;;;38.83;5.17;;;12.90;99.90;;;;;;7284313;19;20861;-82
2024/01/24 05:41:40;;;;;;;34.23;5.37;;;12.90;99.90;;;;;;7281963;19;20200;-82
2024/01/24 05:44:06;;;;;;;40.53;6.00;;;12.90;99.90;;;;;;7285754;19;20189;-81
2024/01/24 05:46:31;;;;;;;33.23;4.93;;;12.80;99.90;;;;;;7306111;19;20649;-82
2024/01/24 05:48:58;;;;;;;33.33;5.50;;;12.80;99.90;;;;;;7283136;19;20199;-82
2024/01/24 05:51:24;;;;;;;36.10;5.17;;;12.80;99.90;;;;;;7286167;19;20209;-81
2024/01/24 05:53:49;;;;;;;37.10;4.93;;;12.80;99.90;;;;;;7283439;19;20227;-82
2024/01/24 05:56:15;;;;;;;39.77;6.00;;;12.80;99.90;;;;;;7283965;19;20933;-82
2024/01/24 05:58:40;;;;;;;32.23;5.57;;;12.70;99.90;;;;;;7283679;19;20913;-81
2024/01/24 06:01:06;;;;;;;38.33;5.47;;;12.70;99.90;;;;;;7284319;19;20197;-82
2024/01/24 06:03:35;;;;;;;31.13;5.10;;;12.80;99.90;;;;;;7304987;19;20210;-81
2024/01/24 06:06:01;;;;;;;35.07;5.70;;;12.70;99.90;;;;;;7283982;19;20252;-80
2024/01/24 06:08:27;;;;;;;28.57;5.30;;;12.70;99.90;;;;;;7280360;19;20227;-81
2024/01/24 06:10:53;;;;;;;45.07;5.37;;;12.70;99.90;;;;;;7284056;19;20190;-80
2024/01/24 06:13:18;;;;;;;35.10;5.70;;;12.60;99.90;;;;;;7283681;19;20194;-81
2024/01/24 06:15:44;;;;;;;35.60;6.00;;;12.60;99.90;;;;;;7283596;19;20275;-81
2024/01/24 06:18:10;;;;;;;37.60;6.47;;;12.50;99.90;;;;;;7283880;19;20180;-81
2024/01/24 06:20:35;;;;;;;36.13;5.57;;;12.50;99.90;;;;;;7286655;19;20219;-81
2024/01/24 06:23:01;;;;;;;38.87;6.83;;;12.50;99.90;;;;;;7305227;19;20251;-81
2024/01/24 06:25:27;;;;;;;44.67;6.13;;;12.50;99.90;;;;;;7282214;19;20185;-81
2024/01/24 06:27:53;;;;;;;43.50;6.30;;;12.60;99.90;;;;;;7281786;19;20196;-82
2024/01/24 06:30:18;;;;;;;39.63;6.57;;;12.60;99.90;;;;;;7285189;19;20218;-80
2024/01/24 06:32:44;;;;;;;40.33;5.70;;;12.60;99.90;;;;;;7282229;19;20196;-80
2024/01/24 06:35:10;;;;;;;41.13;6.00;;;12.50;99.90;;;;;;7283415;19;20845;-80
2024/01/24 06:37:37;;;;;;;29.47;5.30;;;12.50;99.90;;;;;;7284288;19;20303;-82
2024/01/24 06:40:05;;;;;;;37.37;6.53;;;12.50;99.90;;;;;;7304092;19;20181;-80
2024/01/24 06:42:31;;;;;;;42.37;6.40;;;12.50;99.90;;;;;;7283598;19;20663;-80
2024/01/24 06:44:57;;;;;;;47.03;6.87;;;12.50;99.90;;;;;;7283531;19;20184;-81
2024/01/24 06:47:23;;;;;;;47.80;7.33;;;12.50;99.90;;;;;;7281705;19;20192;-82
2024/01/24 06:49:48;;;;;;;44.93;7.23;;;12.50;99.90;;;;;;7282983;19;20535;-81
2024/01/24 06:52:14;;;;;;;46.97;6.13;;;12.50;99.90;;;;;;7283800;19;20203;-81
2024/01/24 06:54:40;;;;;;;49.20;7.03;;;12.40;99.90;;;;;;7282692;19;20198;-81
2024/01/24 06:57:06;;;;;;;42.20;6.90;;;12.30;99.90;;;;;;7283369;19;20184;-81
2024/01/24 06:59:32;;;;;;;44.17;6.83;;;12.30;99.90;;;;;;7304557;19;20181;-81
2024/01/24 07:01:59;;;;;;;47.17;7.70;;;12.30;99.90;;;;;;7282423;19;20212;-80
2024/01/24 07:04:25;;;;;;;46.83;7.63;;;12.20;99.90;;;;;;7281273;19;20564;-80
2024/01/24 07:06:51;;;;;;;53.23;8.83;;;12.20;99.90;;;;;;7281745;19;20196;-80
2024/01/24 07:09:17;;;;;;;45.73;7.10;;;12.20;99.90;;;;;;7282408;19;20212;-82
2024/01/24 07:11:43;;;;;;;48.23;7.07;;;12.10;99.90;;;;;;7281713;19;20193;-80
2024/01/24 07:14:09;;;;;;;49.43;7.70;;;12.20;99.90;;;;;;7281661;19;20192;-78
2024/01/24 07:16:35;;;;;;;49.53;7.50;;;12.20;99.90;;;;;;7295446;19;20185;-77
2024/01/24 07:19:01;;;;;;;47.37;7.40;;;12.40;99.90;;;;;;7305819;19;20267;-78
2024/01/24 07:21:27;;;;;;;49.10;8.53;;;12.40;99.90;;;;;;7289339;19;20223;-78
2024/01/24 07:23:52;;;;;;;47.13;7.57;;;12.40;99.90;;;;;;7291580;19;20201;-78
2024/01/24 07:26:18;;;;;;;49.77;7.30;;;12.40;99.90;;;;;;7289810;19;20691;-78
2024/01/24 07:28:44;;;;;;;48.97;6.97;;;12.40;99.90;;;;;;7287054;19;20275;-78
2024/01/24 07:31:09;;;;;;;52.70;7.73;;;12.40;99.90;;;;;;7287684;19;20819;-78
2024/01/24 07:33:35;;;;;;;47.93;7.00;;;12.30;99.90;;;;;;7294965;19;20220;-77
2024/01/24 07:36:01;;;;;;;41.57;7.53;;;12.30;99.90;;;;;;7309476;19;20220;-78
2024/01/24 07:38:26;;;;;;;55.90;7.53;;;12.20;99.90;;;;;;7285749;19;20558;-78
2024/01/24 07:40:52;;;;;;;46.20;7.13;;;12.30;99.90;;;;;;7287280;19;20203;-78
2024/01/24 07:43:19;;;;;;;45.63;7.03;;;12.30;99.90;;;;;;7285984;19;20196;-79
2024/01/24 07:45:44;;;;;;;52.90;7.23;;;12.40;99.90;;;;;;7289462;19;20193;-78
2024/01/24 07:48:14;;;;;;;49.63;7.93;;;12.40;99.90;;;;;;7287651;19;20200;-78
2024/01/24 07:50:41;;;;;;;50.93;7.17;;;12.40;99.90;;;;;;7287766;19;20516;-78
2024/01/24 07:53:07;;;;;;;50.70;8.70;;;12.40;99.90;;;;;;7287589;19;20581;-78
2024/01/24 07:55:32;;;;;;;49.80;6.87;;;12.40;99.90;;;;;;7309476;19;20180;-78
2024/01/24 07:57:58;;;;;;;41.10;7.20;;;12.30;99.90;;;;;;7285853;19;20538;-78
2024/01/24 08:00:25;;;;;;;47.87;7.63;;;12.30;99.90;;;;;;7286008;19;21094;-78
2024/01/24 08:02:50;;;;;;;48.77;7.70;;;12.30;99.90;;;;;;7285754;19;20203;-79
2024/01/24 08:05:16;;;;;;;50.17;7.33;;;12.40;99.90;;;;;;7287810;19;20252;-79
2024/01/24 08:07:42;;;;;;;47.00;7.57;;;12.40;99.90;;;;;;7287104;19;20218;-79
2024/01/24 08:10:11;;;;;;;51.90;8.17;;;12.30;99.90;;;;;;7286520;19;20193;-78
2024/01/24 08:12:38;;;;;;;58.93;8.00;;;12.30;99.90;;;;;;7285063;19;20193;-77
2024/01/24 08:15:06;;;;;;;52.40;8.20;;;12.40;99.90;;;;;;7306844;19;20568;-77
2024/01/24 08:17:33;;;;;;;51.70;7.57;;;12.30;99.90;;;;;;7285426;19;20280;-76
2024/01/24 08:19:59;;;;;;;48.20;7.43;;;12.30;99.90;;;;;;7284358;19;20196;-76
2024/01/24 08:22:28;;;;;;;52.23;8.07;;;12.30;99.90;;;;;;7285032;19;20202;-77
2024/01/24 08:24:54;;;;;;;51.73;7.97;;;12.30;99.90;;;;;;7284642;19;20944;-76
2024/01/24 08:27:20;;;;;;;47.10;8.00;;;12.30;99.90;;;;;;7284224;19;20236;-76
2024/01/24 08:29:48;;;;;;;49.97;8.07;;;12.30;99.90;;;;;;7281524;19;20185;-77
2024/01/24 08:32:14;;;;;;;48.67;7.90;;;12.30;99.90;;;;;;7282227;19;20193;-77
2024/01/24 08:34:40;;;;;;;50.60;7.40;;;12.40;99.90;;;;;;7282972;19;20579;-78
2024/01/24 08:37:06;;;;;;;56.67;9.47;;;12.50;99.90;;;;;;7287651;19;20286;-77
2024/01/24 08:39:33;;;;;;;46.67;7.83;;;12.60;99.90;;;;;;7305252;19;20181;-77
2024/01/24 08:41:58;;;;;;;49.80;7.70;;;12.50;99.90;;;;;;7282614;19;20185;-77
2024/01/24 08:44:24;;;;;;;45.80;8.07;;;12.50;99.90;;;;;;7282872;19;20209;-78
2024/01/24 08:46:51;;;;;;;49.27;7.63;;;12.50;99.90;;;;;;7281804;19;20185;-77
2024/01/24 08:49:16;;;;;;;54.73;8.47;;;12.70;99.90;;;;;;7280503;19;20750;-77
2024/01/24 08:51:42;;;;;;;54.87;8.53;;;12.80;99.90;;;;;;7284515;19;20252;-77
2024/01/24 08:54:08;;;;;;;42.37;7.77;;;12.70;99.90;;;;;;7283188;19;20314;-77
2024/01/24 08:56:34;;;;;;;50.73;8.43;;;12.70;99.90;;;;;;7305794;19;20181;-77
2024/01/24 08:58:59;;;;;;;50.07;8.57;;;12.80;99.90;;;;;;7281783;19;20281;-76
2024/01/24 09:01:27;;;;;;;51.33;7.97;;;12.90;99.90;;;;;;7281987;19;20275;-77
2024/01/24 09:03:53;;;;;;;50.03;8.50;;;13.00;99.90;;;;;;7283726;19;20872;-78
2024/01/24 09:06:20;;;;;;;55.20;8.17;;;12.90;99.90;;;;;;7282939;19;20197;-77
2024/01/24 09:08:51;;;;;;;58.30;8.83;;;12.90;99.90;;;;;;7281990;19;20191;-77
2024/01/24 09:11:18;;;;;;;45.77;8.20;;;13.00;99.90;;;;;;7282917;19;20195;-78
2024/01/24 09:13:45;;;;;;;52.10;8.63;;;13.00;99.90;;;;;;7282112;19;20189;-77
2024/01/24 09:16:10;;;;;;;49.37;8.03;;;13.00;99.90;;;;;;7281875;19;20197;-76
2024/01/24 09:18:36;;;;;;;50.10;8.53;;;12.90;99.90;;;;;;7283113;19;20189;-76
2024/01/24 09:21:03;;;;;;;52.73;9.30;;;13.00;99.90;;;;;;7303672;19;20969;-76
2024/01/24 09:23:29;;;;;;;56.73;9.33;;;12.80;99.90;;;;;;7279485;19;20188;-76
2024/01/24 09:25:55;;;;;;;51.57;8.77;;;12.70;99.90;;;;;;7283482;19;20202;-76
2024/01/24 09:28:20;;;;;;;49.77;8.47;;;12.80;99.90;;;;;;7281123;19;20197;-76
2024/01/24 09:30:46;;;;;;;50.50;8.03;;;12.90;99.90;;;;;;7282415;19;20312;-78
2024/01/24 09:33:12;;;;;;;54.73;8.67;;;12.90;99.90;;;;;;7282311;19;20786;-78
2024/01/24 09:35:37;;;;;;;50.47;8.63;;;12.90;99.90;;;;;;7281153;19;20200;-77
2024/01/24 09:38:04;;;;;;;49.67;8.00;;;13.00;99.90;;;;;;7304482;19;20204;-78
2024/01/24 09:40:30;;;;;;;47.57;8.10;;;13.00;99.90;;;;;;7282254;19;20185;-78
2024/01/24 09:43:01;;;;;;;53.03;8.97;;;12.80;99.90;;;;;;7282528;19;20186;-78
2024/01/24 09:45:28;;;;;;;44.53;7.33;;;12.90;99.90;;;;;;7283382;19;20194;-78
2024/01/24 09:47:56;;;;;;;66.27;10.63;;;12.90;99.90;;;;;;7282913;19;20193;-78
2024/01/24 09:50:24;;;;;;;60.30;8.63;;;13.00;99.90;;;;;;7280720;19;20221;-78
2024/01/24 09:52:50;;;;;;;51.17;8.47;;;13.00;99.90;;;;;;7283016;19;20201;-77
2024/01/24 09:55:18;;;;;;;56.63;9.87;;;13.00;99.90;;;;;;7281284;19;20185;-77
2024/01/24 09:57:45;;;;;;;51.53;9.37;;;12.90;99.90;;;;;;7278824;19;20185;-75
2024/01/24 10:00:14;;;;;;;60.40;8.87;;;13.00;99.90;;;;;;7277262;19;20561;-76
2024/01/24 10:02:44;;;;;;;51.87;8.33;;;13.00;99.90;;;;;;7277877;19;20193;-76
2024/01/24 10:05:13;;;;;;;55.73;8.83;;;13.20;99.90;;;;;;7281900;19;20210;-77
2024/01/24 10:07:40;;;;;;;56.47;8.83;;;13.30;99.90;;;;;;7292444;19;20197;-76
2024/01/24 10:10:09;;;;;;;54.03;8.80;;;13.40;99.90;;;;;;7293868;19;20191;-77
2024/01/24 10:12:35;;;;;;;54.37;9.23;;;13.20;99.90;;;;;;7312689;19;20192;-76
2024/01/24 10:15:01;;;;;;;64.63;9.73;;;13.20;99.90;;;;;;7299343;19;20193;-77
2024/01/24 10:17:27;;;;;;;55.03;9.10;;;13.30;99.90;;;;;;7275423;19;20213;-77
2024/01/24 10:19:53;;;;;;;59.60;8.57;;;13.20;99.90;;;;;;7278655;19;20196;-77
2024/01/24 10:22:19;;;;;;;54.87;9.87;;;13.30;99.90;;;;;;7278175;19;20520;-76
2024/01/24 10:24:45;;;;;;;43.10;8.87;;;13.40;99.90;;;;;;7278913;19;20196;-76
2024/01/24 10:27:11;;;;;;;47.43;8.10;;;13.30;99.90;;;;;;7277971;19;20686;-76
2024/01/24 10:29:42;;;;;;;55.50;8.10;;;13.20;99.90;;;;;;7278765;19;20244;-77
2024/01/24 10:32:11;;;;;;;54.47;8.90;;;13.30;99.90;;;;;;7278219;19;20582;-77
2024/01/24 10:34:40;;;;;;;52.13;8.70;;;13.60;99.90;;;;;;7276616;19;20217;-76
2024/01/24 10:37:06;;;;;;;52.70;8.63;;;13.80;99.90;;;;;;7289446;19;20283;-78
2024/01/24 10:39:34;;;;;;;46.87;8.53;;;14.00;99.90;;;;;;7298348;19;20183;-77
2024/01/24 10:42:03;;;;;;;51.40;8.87;;;13.90;99.90;;;;;;7281218;19;20192;-78
2024/01/24 10:44:33;;;;;;;51.67;8.67;;;14.10;99.90;;;;;;7283222;19;20197;-79
2024/01/24 10:46:59;;;;;;;46.77;8.67;;;14.30;99.90;;;;;;7282785;19;20208;-79
2024/01/24 10:49:26;;;;;;;49.13;8.60;;;13.90;99.90;;;;;;7281759;19;20203;-78
2024/01/24 10:51:52;;;;;;;56.37;8.53;;;13.60;99.90;;;;;;7282181;19;20846;-77
2024/01/24 10:54:21;;;;;;;51.40;8.83;;;13.80;99.90;;;;;;7278027;19;20258;-78
2024/01/24 10:56:50;;;;;;;54.20;9.80;;;13.80;99.90;;;;;;7283037;19;20196;-77
2024/01/24 10:59:17;;;;;;;54.83;8.93;;;13.90;99.90;;;;;;7280884;19;20192;-78
2024/01/24 11:01:44;;;;;;;46.57;8.40;;;13.70;99.90;;;;;;7280845;19;20187;-78
2024/01/24 11:04:14;;;;;;;52.43;10.60;;;13.60;99.90;;;;;;7279908;19;20188;-77
2024/01/24 11:06:48;;;;;;;49.03;8.83;;;13.80;99.90;;;;;;7278536;19;20189;-78
2024/01/24 11:09:33;;;;;;;44.83;8.57;;;13.80;99.90;;;;;;7280208;19;20181;-78
2024/01/24 11:11:59;;;;;;;53.03;9.20;;;13.70;99.90;;;;;;7282162;19;20261;-78
2024/01/24 11:14:36;;;;;;;45.90;8.37;;;13.70;99.90;;;;;;7281154;19;20612;-78
2024/01/24 11:17:03;;;;;;;51.83;9.20;;;13.70;99.90;;;;;;7281252;19;20186;-78
2024/01/24 11:19:30;;;;;;;55.53;8.60;;;13.60;99.90;;;;;;7279862;19;21111;-77
2024/01/24 11:22:08;;;;;;;51.87;8.23;;;13.60;99.90;;;;;;7281708;19;20197;-78
2024/01/24 11:24:40;;;;;;;47.37;7.57;;;13.60;99.90;;;;;;7280857;19;20195;-78
2024/01/24 11:27:33;;;;;;;57.03;9.40;;;13.60;99.90;;;;;;7271011;19;20203;-77
2024/01/24 11:30:15;;;;;;;51.93;8.60;;;13.50;99.90;;;;;;7281229;19;20178;-79
2024/01/24 11:32:55;;;;;;;42.73;8.07;;;13.30;99.90;;;;;;7178995;19;2004644;-78
2024/01/24 11:35:36;;;;;;;54.90;8.73;;;13.30;99.90;;;;;;7280572;19;20199;-78
2024/01/24 11:38:31;;;;;;;46.30;7.47;;;13.60;99.90;;;;;;7281083;19;20214;-77
2024/01/24 11:41:20;;;;;;;53.27;8.17;;;13.50;99.90;;;;;;7178615;19;2004708;-78
2024/01/24 11:43:48;;;;;;;46.07;7.63;;;13.60;99.90;;;;;;7178822;19;2005114;-78
2024/01/24 11:46:14;;;;;;;47.93;8.37;;;13.70;99.90;;;;;;7278128;19;20583;-78
2024/01/24 11:48:40;;;;;;;47.33;8.60;;;13.70;99.90;;;;;;7280970;19;20184;-77
2024/01/24 11:51:11;;;;;;;49.30;7.87;;;13.70;99.90;;;;;;7293910;19;20183;-77
2024/01/24 11:53:37;;;;;;;47.43;8.50;;;13.70;99.90;;;;;;7278426;19;20201;-78
2024/01/24 11:56:14;;;;;;;54.50;8.37;;;13.70;99.90;;;;;;7302876;19;20185;-79
2024/01/24 11:58:40;;;;;;;40.50;7.43;;;13.60;99.90;;;;;;7178087;19;2005185;-78
2024/01/24 12:01:07;;;;;;;43.63;7.43;;;13.60;99.90;;;;;;7290344;19;20618;-78
2024/01/24 12:03:34;;;;;;;42.33;7.40;;;13.50;99.90;;;;;;7302669;19;21134;-78
2024/01/24 12:06:01;;;;;;;52.87;9.60;;;13.80;99.90;;;;;;7279142;19;20971;-79
2024/01/24 12:08:27;;;;;;;44.40;6.90;;;14.00;99.90;;;;;;7286603;19;20206;-79
2024/01/24 12:10:53;;;;;;;43.73;8.10;;;14.10;99.90;;;;;;7286752;19;20200;-79
2024/01/24 12:13:21;;;;;;;38.93;7.00;;;14.00;99.90;;;;;;7286651;19;20196;-78
2024/01/24 12:15:47;;;;;;;46.00;6.53;;;14.00;99.90;;;;;;7287614;19;20249;-77
2024/01/24 12:18:16;;;;;;;39.83;7.10;;;13.90;99.90;;;;;;7287715;19;20182;-78
2024/01/24 12:20:52;;;;;;;41.07;7.13;;;13.80;99.90;;;;;;7286646;19;20272;-78
2024/01/24 12:23:18;;;;;;;35.60;7.20;;;13.90;99.90;;;;;;7285829;19;20199;-79
2024/01/24 12:25:44;;;;;;;46.17;7.33;;;13.90;99.90;;;;;;7286396;19;20264;-79
2024/01/24 12:28:11;;;;;;;48.37;7.40;;;13.70;99.90;;;;;;7286700;19;20190;-79
2024/01/24 12:30:37;;;;;;;46.23;7.57;;;13.70;99.90;;;;;;7285287;19;20347;-78
2024/01/24 12:33:04;;;;;;;38.60;6.90;;;13.80;99.90;;;;;;7308673;19;20610;-80
2024/01/24 12:35:31;;;;;;;43.13;9.03;;;14.00;99.90;;;;;;7284705;19;20570;-80
2024/01/24 12:37:59;;;;;;;42.77;7.20;;;14.10;99.90;;;;;;7286283;19;20241;-79